Map

Track Data

SID SEASON NUMBER BASIN SUBBASIN NAME ISO_TIME NATURE LAT LON WMO_WIND WMO_PRES WMO_AGENCY TRACK_TYPE DIST2LAND LANDFALL IFLAG USA_AGENCY USA_ATCF_ID USA_LAT USA_LON USA_RECORD USA_STATUS USA_WIND USA_PRES USA_SSHS USA_R34_NE USA_R34_SE USA_R34_SW USA_R34_NW USA_R50_NE USA_R50_SE USA_R50_SW USA_R50_NW USA_R64_NE USA_R64_SE USA_R64_SW USA_R64_NW USA_POCI USA_ROCI USA_RMW USA_EYE TOKYO_LAT TOKYO_LON TOKYO_GRADE TOKYO_WIND TOKYO_PRES TOKYO_R50_DIR TOKYO_R50_LONG TOKYO_R50_SHORT TOKYO_R30_DIR TOKYO_R30_LONG TOKYO_R30_SHORT TOKYO_LAND CMA_LAT CMA_LON CMA_CAT CMA_WIND CMA_PRES HKO_LAT HKO_LON HKO_CAT HKO_WIND HKO_PRES NEWDELHI_LAT NEWDELHI_LON NEWDELHI_GRADE NEWDELHI_WIND NEWDELHI_PRES NEWDELHI_CI NEWDELHI_DP NEWDELHI_POCI REUNION_LAT REUNION_LON REUNION_TYPE REUNION_WIND REUNION_PRES REUNION_TNUM REUNION_CI REUNION_RMW REUNION_R34_NE REUNION_R34_SE REUNION_R34_SW REUNION_R34_NW REUNION_R50_NE REUNION_R50_SE REUNION_R50_SW REUNION_R50_NW REUNION_R64_NE REUNION_R64_SE REUNION_R64_SW REUNION_R64_NW BOM_LAT BOM_LON BOM_TYPE BOM_WIND BOM_PRES BOM_TNUM BOM_CI BOM_RMW BOM_R34_NE BOM_R34_SE BOM_R34_SW BOM_R34_NW BOM_R50_NE BOM_R50_SE BOM_R50_SW BOM_R50_NW BOM_R64_NE BOM_R64_SE BOM_R64_SW BOM_R64_NW BOM_ROCI BOM_POCI BOM_EYE BOM_POS_METHOD BOM_PRES_METHOD NADI_LAT NADI_LON NADI_CAT NADI_WIND NADI_PRES WELLINGTON_LAT WELLINGTON_LON WELLINGTON_WIND WELLINGTON_PRES DS824_LAT DS824_LON DS824_STAGE DS824_WIND DS824_PRES TD9636_LAT TD9636_LON TD9636_STAGE TD9636_WIND TD9636_PRES TD9635_LAT TD9635_LON TD9635_WIND TD9635_PRES TD9635_ROCI NEUMANN_LAT NEUMANN_LON NEUMANN_CLASS NEUMANN_WIND NEUMANN_PRES MLC_LAT MLC_LON MLC_CLASS MLC_WIND MLC_PRES USA_GUST BOM_GUST BOM_GUST_PER REUNION_GUST REUNION_GUST_PER USA_SEAHGT USA_SEARAD_NE USA_SEARAD_SE USA_SEARAD_SW USA_SEARAD_NW STORM_SPEED STORM_DIR
1935283N11126 1935 59 WP MM NOT_NAMED 1935-10-10 10:00:00 NR 10.7000 125.600 main 40 31 __________O___ -1 10.7000 125.600 2 7 298
1935283N11126 1935 59 WP MM NOT_NAMED 1935-10-10 12:00:00 NR 10.8052 125.396 main 31 10 __________P___ -1 10.8052 125.396 2 7 297
1935283N11126 1935 59 WP MM NOT_NAMED 1935-10-10 15:00:00 NR 10.9609 125.067 main 10 0 __________P___ -1 10.9609 125.067 2 8 293
1935283N11126 1935 59 WP MM NOT_NAMED 1935-10-10 18:00:00 NR 11.1117 124.677 main 0 0 __________P___ -1 11.1117 124.677 2 9 289
1935283N11126 1935 59 WP MM NOT_NAMED 1935-10-10 21:00:00 NR 11.2547 124.190 main 21 11 __________P___ -1 11.2547 124.190 2 10 286
1935283N11126 1935 59 WP MM NOT_NAMED 1935-10-10 22:00:00 NR 11.3000 124.000 main 11 11 __________O___ -1 11.3000 124.000 2 12 282
1935283N11126 1935 59 WP MM NOT_NAMED 1935-10-11 00:00:00 NR 11.3873 123.574 main 39 0 __________P___ -1 11.3873 123.574 2 14 281
1935283N11126 1935 59 WP MM NOT_NAMED 1935-10-11 03:00:00 NR 11.5177 122.848 main 0 0 __________P___ -1 11.5177 122.848 2 15 280
1935283N11126 1935 59 WP MM NOT_NAMED 1935-10-11 06:00:00 NR 11.6612 122.059 main 0 10 __________P___ -1 11.6612 122.059 2 16 281
1935283N11126 1935 59 WP MM NOT_NAMED 1935-10-11 09:00:00 NR 11.8334 121.260 main 46 33 __________P___ -1 11.8334 121.260 2 16 283
1935283N11126 1935 59 WP MM NOT_NAMED 1935-10-11 10:00:00 NR 11.9000 121.000 main 35 35 __________O___ -1 11.9000 121.000 2 15 286
1935283N11126 1935 59 WP MM NOT_NAMED 1935-10-11 12:00:00 NR 12.0359 120.524 main 69 69 __________P___ -1 12.0359 120.524 2 15 288
1935283N11126 1935 59 WP MM NOT_NAMED 1935-10-11 15:00:00 NR 12.2712 119.823 main 114 111 __________P___ -1 12.2712 119.823 2 15 291
1935283N11126 1935 59 WP MM NOT_NAMED 1935-10-11 18:00:00 NR 12.5500 119.129 main 141 151 __________P___ -1 12.5500 119.129 2 15 294
1935283N11126 1935 59 WP MM NOT_NAMED 1935-10-11 21:00:00 NR 12.8784 118.434 main 213 213 __________P___ -1 12.8784 118.434 2 15 296
1935283N11126 1935 59 WP MM NOT_NAMED 1935-10-11 22:00:00 NR 13.0000 118.200 main 231 231 __________O___ -1 13.0000 118.200 2 16 300
1935283N11126 1935 59 WP MM NOT_NAMED 1935-10-12 00:00:00 NR 13.2831 117.728 main 281 281 __________P___ -1 13.2831 117.728 2 17 303
1935283N11126 1935 59 WP MM NOT_NAMED 1935-10-12 03:00:00 NR 13.7528 117.014 main 352 352 __________P___ -1 13.7528 117.014 2 17 304
1935283N11126 1935 59 WP MM NOT_NAMED 1935-10-12 06:00:00 NR 14.2322 116.289 main 409 416 __________P___ -1 14.2322 116.289 2 17 303
1935283N11126 1935 59 WP MM NOT_NAMED 1935-10-12 09:00:00 NR 14.6712 115.550 main 473 473 __________P___ -1 14.6712 115.550 2 17 301
1935283N11126 1935 59 WP MM NOT_NAMED 1935-10-12 10:00:00 NR 14.8000 115.300 main 490 490 __________O___ -1 14.8000 115.300 2 16 294
1935283N11126 1935 59 WP MM NOT_NAMED 1935-10-12 12:00:00 NR 15.0009 114.796 main 537 526 __________P___ -1 15.0009 114.796 2 16 290
1935283N11126 1935 59 WP MM NOT_NAMED 1935-10-12 15:00:00 NR 15.2458 114.029 main 526 457 __________P___ -1 15.2458 114.029 2 16 287
1935283N11126 1935 59 WP MM NOT_NAMED 1935-10-12 18:00:00 NR 15.4480 113.250 main 457 378 __________P___ -1 15.4480 113.250 2 16 284
1935283N11126 1935 59 WP MM NOT_NAMED 1935-10-12 21:00:00 NR 15.6357 112.464 main 378 351 __________P___ -1 15.6357 112.464 2 16 284
1935283N11126 1935 59 WP MM NOT_NAMED 1935-10-12 22:00:00 NR 15.7000 112.200 main 351 304 __________O___ -1 15.7000 112.200 2 16 287
1935283N11126 1935 59 WP MM NOT_NAMED 1935-10-13 00:00:00 NR 15.8621 111.688 main 309 236 __________P___ -1 15.8621 111.688 2 16 288
1935283N11126 1935 59 WP MM NOT_NAMED 1935-10-13 03:00:00 NR 16.1061 110.914 main 236 177 __________P___ -1 16.1061 110.914 2 16 288
1935283N11126 1935 59 WP MM NOT_NAMED 1935-10-13 06:00:00 NR 16.3375 110.119 main 177 120 __________P___ -1 16.3375 110.119 2 16 286
1935283N11126 1935 59 WP MM NOT_NAMED 1935-10-13 09:00:00 NR 16.5411 109.288 main 120 100 __________P___ -1 16.5411 109.288 2 17 284
1935283N11126 1935 59 WP MM NOT_NAMED 1935-10-13 10:00:00 NR 16.6000 109.000 main 100 64 __________O___ -1 16.6000 109.000 2 17 281
1935283N11126 1935 59 WP MM NOT_NAMED 1935-10-13 12:00:00 NR 16.7023 108.406 main 64 15 __________P___ -1 16.7023 108.406 2 18 279
1935283N11126 1935 59 WP MM NOT_NAMED 1935-10-13 15:00:00 NR 16.8220 107.476 main 15 0 __________P___ -1 16.8220 107.476 2 18 277
1935283N11126 1935 59 WP MM NOT_NAMED 1935-10-13 18:00:00 NR 16.9107 106.512 main 0 0 __________P___ -1 16.9107 106.512 2 19 275
1935283N11126 1935 59 WP MM NOT_NAMED 1935-10-13 21:00:00 NR 16.9795 105.529 main 0 0 __________P___ -1 16.9795 105.529 2 19 274
1935283N11126 1935 59 WP MM NOT_NAMED 1935-10-13 22:00:00 NR 17.0000 105.200 main 0 __________O___ -1 17.0000 105.200 7 19 274

Digital Typhoon Data and Search

About IBTrACS Database

This database is a web-friendly format of International Best Track Archive for Climate Stewardship (IBTrACS), a global best track data archive curated by NOAA dating back to 1842.

Updated: 2021-12-06